createdAt,value
2023-04-17T00:00:54.128Z,9.00
2023-04-17T00:03:41.700Z,9.00
2023-04-17T00:06:33.885Z,9.00
2023-04-17T00:09:21.466Z,9.00
2023-04-17T00:12:09.089Z,8.90
2023-04-17T00:14:56.833Z,8.90
2023-04-17T00:17:44.331Z,8.90
2023-04-17T00:20:32.211Z,8.90
2023-04-17T00:23:21.313Z,8.90
2023-04-17T00:26:08.811Z,8.90
2023-04-17T00:28:57.026Z,8.80
2023-04-17T00:31:44.648Z,8.80
2023-04-17T00:34:32.260Z,8.80
2023-04-17T00:37:20.398Z,8.70
2023-04-17T00:40:10.517Z,8.60
2023-04-17T00:43:01.665Z,8.60
2023-04-17T00:45:49.720Z,8.50
2023-04-17T00:48:40.999Z,8.50
2023-04-17T00:51:28.879Z,8.40
2023-04-17T00:54:17.034Z,8.30
2023-04-17T00:57:06.535Z,8.30
2023-04-17T00:59:54.153Z,8.30
2023-04-17T01:02:42.282Z,8.20
2023-04-17T01:05:30.843Z,8.10
2023-04-17T01:08:19.390Z,8.10
2023-04-17T01:11:07.055Z,8.00
2023-04-17T01:13:56.380Z,7.90
2023-04-17T01:16:44.710Z,7.80
2023-04-17T01:19:33.045Z,7.70
2023-04-17T01:22:21.370Z,7.50
2023-04-17T01:25:14.465Z,7.40
2023-04-17T01:28:01.807Z,7.20
2023-04-17T01:30:50.752Z,7.20
2023-04-17T01:33:38.477Z,7.20
2023-04-17T01:36:25.921Z,7.20
2023-04-17T01:39:13.465Z,7.20
2023-04-17T01:42:02.608Z,7.30
2023-04-17T01:44:50.322Z,7.30
2023-04-17T01:47:38.110Z,7.30
2023-04-17T01:50:25.602Z,7.30
2023-04-17T01:53:13.289Z,7.40
2023-04-17T01:56:02.019Z,7.40
2023-04-17T01:58:52.139Z,7.50
2023-04-17T02:01:40.614Z,7.60
2023-04-17T02:04:28.538Z,7.60
2023-04-17T02:07:16.731Z,7.60
2023-04-17T02:10:04.833Z,7.60
2023-04-17T02:12:52.283Z,7.60
2023-04-17T02:15:41.351Z,7.70
2023-04-17T02:18:28.909Z,7.70
2023-04-17T02:21:16.598Z,7.70
2023-04-17T02:24:03.981Z,7.80
2023-04-17T02:26:51.375Z,7.80
2023-04-17T02:29:38.669Z,7.80
2023-04-17T02:32:28.538Z,7.80
2023-04-17T02:35:16.696Z,7.80
2023-04-17T02:38:04.357Z,7.90
2023-04-17T02:40:53.866Z,7.90
2023-04-17T02:43:41.869Z,7.90
2023-04-17T02:46:30.799Z,7.90
2023-04-17T02:49:19.990Z,7.90
2023-04-17T02:52:07.724Z,7.90
2023-04-17T02:54:56.625Z,7.90
2023-04-17T02:57:44.651Z,7.90
2023-04-17T03:00:31.902Z,7.90
2023-04-17T03:03:19.639Z,7.90
2023-04-17T03:06:08.849Z,7.90
2023-04-17T03:08:57.059Z,7.80
2023-04-17T03:11:44.880Z,7.80
2023-04-17T03:14:32.349Z,7.80
2023-04-17T03:17:20.945Z,7.90
2023-04-17T03:20:10.188Z,7.90
2023-04-17T03:22:58.979Z,7.80
2023-04-17T03:25:46.775Z,7.80
2023-04-17T03:28:36.006Z,7.80
2023-04-17T03:31:25.851Z,7.80
2023-04-17T03:34:14.231Z,7.80
2023-04-17T03:37:02.355Z,7.90
2023-04-17T03:39:53.072Z,7.80
2023-04-17T03:42:40.708Z,7.90
2023-04-17T03:45:29.776Z,7.80
2023-04-17T03:48:17.704Z,7.90
2023-04-17T03:51:07.443Z,7.80
2023-04-17T03:53:56.706Z,7.90
2023-04-17T03:56:46.228Z,7.90
2023-04-17T03:59:34.353Z,7.80
2023-04-17T04:02:23.017Z,7.80
2023-04-17T04:05:11.191Z,7.90
2023-04-17T04:07:59.180Z,7.90
2023-04-17T04:10:56.872Z,7.90
2023-04-17T04:13:55.731Z,7.90
2023-04-17T04:16:43.411Z,8.00
2023-04-17T04:19:33.159Z,8.00
2023-04-17T04:22:22.521Z,8.10
2023-04-17T04:25:13.532Z,8.20
2023-04-17T04:28:10.698Z,8.20
2023-04-17T04:30:59.818Z,8.20
2023-04-17T04:33:55.334Z,8.30
2023-04-17T04:36:50.069Z,8.30
2023-04-17T04:40:10.796Z,8.30
2023-04-17T04:43:02.035Z,8.30
2023-04-17T04:45:56.495Z,8.30
2023-04-17T04:48:48.492Z,8.30
2023-04-17T04:51:36.682Z,8.30
2023-04-17T04:54:27.356Z,8.20
2023-04-17T04:57:18.605Z,8.20
2023-04-17T05:00:09.657Z,8.20
2023-04-17T05:03:02.563Z,8.20
2023-04-17T05:05:52.258Z,8.20
2023-04-17T05:08:42.534Z,8.10
2023-04-17T05:11:34.110Z,8.20
2023-04-17T05:14:22.377Z,8.20
2023-04-17T05:17:09.830Z,8.20
2023-04-17T05:19:57.293Z,8.30
2023-04-17T05:22:46.992Z,8.40
2023-04-17T05:25:35.713Z,8.40
2023-04-17T05:28:27.398Z,8.40
2023-04-17T05:31:18.146Z,8.50
2023-04-17T05:34:06.956Z,8.60
2023-04-17T05:36:54.670Z,8.70
2023-04-17T05:39:43.570Z,8.80
2023-04-17T05:42:31.125Z,8.90
2023-04-17T05:45:19.262Z,8.90
2023-04-17T05:48:08.894Z,9.10
2023-04-17T05:50:56.928Z,9.20
2023-04-17T05:53:44.891Z,9.30
2023-04-17T05:56:34.347Z,9.40
2023-04-17T05:59:22.866Z,9.50
2023-04-17T06:02:11.664Z,9.50
2023-04-17T06:04:59.680Z,9.70
2023-04-17T06:07:48.180Z,9.80
2023-04-17T06:10:37.268Z,9.90
2023-04-17T06:13:26.164Z,10.00
2023-04-17T06:16:14.861Z,10.10
2023-04-17T06:19:02.653Z,10.20
2023-04-17T06:21:50.407Z,10.30
2023-04-17T06:24:39.945Z,10.50
2023-04-17T06:27:27.438Z,10.60
2023-04-17T06:30:16.601Z,10.70
2023-04-17T06:33:13.719Z,10.70
2023-04-17T06:36:02.794Z,10.70
2023-04-17T06:38:58.602Z,10.70
2023-04-17T06:41:46.294Z,10.80
2023-04-17T06:44:33.843Z,10.80
2023-04-17T06:47:23.105Z,10.80
2023-04-17T06:50:11.585Z,10.90
2023-04-17T06:52:58.860Z,10.90
2023-04-17T06:55:46.316Z,11.00
2023-04-17T06:58:39.098Z,11.20
2023-04-17T07:01:27.993Z,11.20
2023-04-17T07:04:18.083Z,11.30
2023-04-17T07:07:05.666Z,11.40
2023-04-17T07:09:53.137Z,11.60
2023-04-17T07:12:40.832Z,11.90
2023-04-17T07:15:30.745Z,12.10
2023-04-17T07:18:18.605Z,12.20
2023-04-17T07:21:07.534Z,12.30
2023-04-17T07:23:55.440Z,12.20
2023-04-17T07:26:43.436Z,12.10
2023-04-17T07:29:30.987Z,12.10
2023-04-17T07:32:18.588Z,12.00
2023-04-17T07:35:06.669Z,12.00
2023-04-17T07:37:57.966Z,12.00
2023-04-17T07:40:45.996Z,12.10
2023-04-17T07:43:33.679Z,12.20
2023-04-17T07:46:21.234Z,12.40
2023-04-17T07:49:12.193Z,12.40
2023-04-17T07:52:00.149Z,12.40
2023-04-17T07:54:49.140Z,12.40
2023-04-17T07:57:36.631Z,12.60
2023-04-17T08:00:24.660Z,12.60
2023-04-17T08:03:14.623Z,12.40
2023-04-17T08:06:02.357Z,12.40
2023-04-17T08:08:49.977Z,12.60
2023-04-17T08:11:53.418Z,12.80
2023-04-17T08:14:44.174Z,13.10
2023-04-17T08:17:33.087Z,13.30
2023-04-17T08:20:20.808Z,13.40
2023-04-17T08:23:08.212Z,13.10
2023-04-17T08:25:55.536Z,13.10
2023-04-17T08:28:44.762Z,13.60
2023-04-17T08:31:32.553Z,14.10
2023-04-17T08:34:20.040Z,14.20
2023-04-17T08:37:07.767Z,14.30
2023-04-17T08:39:55.161Z,14.30
2023-04-17T08:42:43.887Z,14.20
2023-04-17T08:45:35.756Z,14.20
2023-04-17T08:48:24.188Z,14.20
2023-04-17T08:51:12.038Z,14.20
2023-04-17T08:53:59.756Z,14.10
2023-04-17T08:56:47.176Z,13.80
2023-04-17T08:59:34.880Z,13.90
2023-04-17T09:02:26.865Z,14.00
2023-04-17T09:05:21.236Z,14.10
2023-04-17T09:08:11.675Z,14.30
2023-04-17T09:10:59.121Z,14.80
2023-04-17T09:13:46.631Z,15.20
2023-04-17T09:16:35.219Z,15.20
2023-04-17T09:19:24.241Z,14.80
2023-04-17T09:22:22.727Z,14.10
2023-04-17T09:25:18.129Z,13.90
2023-04-17T09:28:13.429Z,14.00
2023-04-17T09:31:04.538Z,14.20
2023-04-17T09:33:58.957Z,14.70
2023-04-17T09:36:47.984Z,15.00
2023-04-17T09:39:36.272Z,15.00
2023-04-17T09:42:23.977Z,15.00
2023-04-17T09:45:22.285Z,14.30
2023-04-17T09:48:11.587Z,14.30
2023-04-17T09:50:59.361Z,14.10
2023-04-17T09:53:49.210Z,14.00
2023-04-17T09:56:38.042Z,14.00
2023-04-17T09:59:26.961Z,14.10
2023-04-17T10:02:15.532Z,14.30
2023-04-17T10:05:08.715Z,14.70
2023-04-17T10:07:56.544Z,15.20
2023-04-17T10:10:46.624Z,15.50
2023-04-17T10:13:39.516Z,15.60
2023-04-17T10:16:36.408Z,16.00
2023-04-17T10:19:31.651Z,16.20
2023-04-17T10:22:41.619Z,15.80
2023-04-17T10:25:31.339Z,16.00
2023-04-17T10:28:48.052Z,16.60
2023-04-17T10:32:25.991Z,17.00
2023-04-17T10:35:36.367Z,17.20
2023-04-17T10:38:34.694Z,16.80
2023-04-17T10:41:22.886Z,16.70
2023-04-17T10:44:12.017Z,16.70
2023-04-17T10:46:59.720Z,16.80
2023-04-17T10:49:51.253Z,16.90
2023-04-17T10:52:45.076Z,16.70
2023-04-17T10:55:33.080Z,16.50
2023-04-17T10:58:20.682Z,16.40
2023-04-17T11:01:12.822Z,16.30
2023-04-17T11:04:00.783Z,16.40
2023-04-17T11:06:48.750Z,16.20
2023-04-17T11:09:36.357Z,15.90
2023-04-17T11:12:23.901Z,16.00
2023-04-17T11:15:11.840Z,16.20
2023-04-17T11:18:01.571Z,16.50
2023-04-17T11:20:50.059Z,16.40
2023-04-17T11:23:37.652Z,16.00
2023-04-17T11:26:25.302Z,16.30
2023-04-17T11:29:16.930Z,16.70
2023-04-17T11:32:04.870Z,17.30
2023-04-17T11:34:56.624Z,17.80
2023-04-17T11:38:05.396Z,18.10
2023-04-17T11:40:55.451Z,18.60
2023-04-17T11:43:44.318Z,18.90
2023-04-17T11:46:31.986Z,19.30
2023-04-17T11:49:26.176Z,19.50
2023-04-17T11:52:17.852Z,19.50
2023-04-17T11:55:09.658Z,19.60
2023-04-17T11:57:58.531Z,20.00
2023-04-17T12:00:46.120Z,19.90
2023-04-17T12:03:35.430Z,19.90
2023-04-17T12:06:24.307Z,19.70
2023-04-17T12:09:21.351Z,19.70
2023-04-17T12:12:09.461Z,19.20
2023-04-17T12:14:56.930Z,18.90
2023-04-17T12:17:44.195Z,18.60
2023-04-17T12:20:31.772Z,18.90
2023-04-17T12:23:19.361Z,19.30
2023-04-17T12:26:08.406Z,19.50
2023-04-17T12:28:57.942Z,19.00
2023-04-17T12:31:46.170Z,19.10
2023-04-17T12:34:33.611Z,19.10
2023-04-17T12:37:21.478Z,19.30
2023-04-17T12:40:10.322Z,19.70
2023-04-17T12:42:59.279Z,19.90
2023-04-17T12:45:47.573Z,19.60
2023-04-17T12:48:35.437Z,19.30
2023-04-17T12:51:22.706Z,19.40
2023-04-17T12:54:10.296Z,19.80
2023-04-17T12:56:58.301Z,19.80
2023-04-17T12:59:47.141Z,19.80
2023-04-17T13:02:35.309Z,19.40
2023-04-17T13:05:23.172Z,18.20
2023-04-17T13:08:14.860Z,17.90
2023-04-17T13:11:03.832Z,17.90
2023-04-17T13:13:51.477Z,18.10
2023-04-17T13:16:40.650Z,18.50
2023-04-17T13:19:28.296Z,19.10
2023-04-17T13:22:17.842Z,19.10
2023-04-17T13:25:06.623Z,18.70
2023-04-17T13:27:55.225Z,18.80
2023-04-17T13:30:42.946Z,19.00
2023-04-17T13:33:34.119Z,19.10
2023-04-17T13:36:21.808Z,19.20
2023-04-17T13:39:10.029Z,19.00
2023-04-17T13:41:58.305Z,18.80
2023-04-17T13:44:45.741Z,19.20
2023-04-17T13:47:33.215Z,19.80
2023-04-17T13:50:22.405Z,20.30
2023-04-17T13:53:11.213Z,20.60
2023-04-17T13:55:59.033Z,20.80
2023-04-17T13:58:48.081Z,20.70
2023-04-17T14:01:35.806Z,20.80
2023-04-17T14:04:24.606Z,20.10
2023-04-17T14:07:15.457Z,18.90
2023-04-17T14:10:02.876Z,18.10
2023-04-17T14:12:50.230Z,17.70
2023-04-17T14:15:39.644Z,17.70
2023-04-17T14:18:27.690Z,17.60
2023-04-17T14:21:15.277Z,17.80
2023-04-17T14:24:04.113Z,17.70
2023-04-17T14:26:51.826Z,17.40
2023-04-17T14:29:39.441Z,17.20
2023-04-17T14:32:26.886Z,16.90
2023-04-17T14:35:14.403Z,16.70
2023-04-17T14:38:04.996Z,16.60
2023-04-17T14:40:54.358Z,16.50
2023-04-17T14:43:41.997Z,16.50
2023-04-17T14:46:29.639Z,16.50
2023-04-17T14:49:17.319Z,16.60
2023-04-17T14:52:05.307Z,16.90
2023-04-17T14:54:53.131Z,16.90
2023-04-17T14:57:42.493Z,16.80
2023-04-17T15:00:29.848Z,16.60
2023-04-17T15:03:17.504Z,16.50
2023-04-17T15:06:05.522Z,16.90
2023-04-17T15:08:53.276Z,17.60
2023-04-17T15:11:40.570Z,18.20
2023-04-17T15:14:30.048Z,18.50
2023-04-17T15:17:18.360Z,18.90
2023-04-17T15:20:07.157Z,19.20
2023-04-17T15:22:54.743Z,19.30
2023-04-17T15:25:42.794Z,18.90
2023-04-17T15:28:30.428Z,18.30
2023-04-17T15:31:19.794Z,17.70
2023-04-17T15:34:07.398Z,17.00
2023-04-17T15:36:54.687Z,16.60
2023-04-17T15:39:42.208Z,16.30
2023-04-17T15:42:30.471Z,16.00
2023-04-17T15:45:18.212Z,15.90
2023-04-17T15:48:07.415Z,15.80
2023-04-17T15:50:54.785Z,15.70
2023-04-17T15:53:42.286Z,15.60
2023-04-17T15:56:29.548Z,15.60
2023-04-17T15:59:17.029Z,15.50
2023-04-17T16:02:04.953Z,15.40
2023-04-17T16:04:54.201Z,15.20
2023-04-17T16:07:41.817Z,15.10
2023-04-17T16:10:29.373Z,15.00
2023-04-17T16:13:17.096Z,14.80
2023-04-17T16:16:05.126Z,14.70
2023-04-17T16:18:52.711Z,14.60
2023-04-17T16:21:41.677Z,14.60
2023-04-17T16:24:29.584Z,14.50
2023-04-17T16:27:17.538Z,14.40
2023-04-17T16:30:06.102Z,14.40
2023-04-17T16:32:53.799Z,14.30
2023-04-17T16:35:41.407Z,14.20
2023-04-17T16:38:30.423Z,14.10
2023-04-17T16:41:18.735Z,14.10
2023-04-17T16:44:06.405Z,14.00
2023-04-17T16:49:46.657Z,13.90
2023-04-17T16:52:33.957Z,13.80
2023-04-17T16:55:22.824Z,13.70
2023-04-17T16:58:10.782Z,13.60
2023-04-17T17:00:58.322Z,13.60
2023-04-17T17:03:46.599Z,13.60
2023-04-17T17:06:33.963Z,13.50
2023-04-17T17:09:21.331Z,13.50
2023-04-17T17:12:11.026Z,13.40
2023-04-17T17:14:59.525Z,13.40
2023-04-17T17:17:47.122Z,13.30
2023-04-17T17:20:34.653Z,13.30
2023-04-17T17:23:22.320Z,13.20
2023-04-17T17:26:09.914Z,13.20
2023-04-17T17:28:59.144Z,13.10
2023-04-17T17:31:47.003Z,13.10
2023-04-17T17:34:35.676Z,13.10
2023-04-17T17:37:23.337Z,13.00
2023-04-17T17:40:11.540Z,12.90
2023-04-17T17:42:58.811Z,12.90
2023-04-17T17:45:47.818Z,12.90
2023-04-17T17:48:36.006Z,12.80
2023-04-17T17:51:23.704Z,12.80
2023-04-17T17:54:11.588Z,12.80
2023-04-17T17:56:59.282Z,12.70
2023-04-17T17:59:46.800Z,12.70
2023-04-17T18:02:35.867Z,12.70
2023-04-17T18:05:23.651Z,12.60
2023-04-17T18:08:11.139Z,12.60
2023-04-17T18:10:58.798Z,12.50
2023-04-17T18:13:46.200Z,12.50
2023-04-17T18:16:33.985Z,12.50
2023-04-17T18:19:23.146Z,12.40
2023-04-17T18:22:10.846Z,12.40
2023-04-17T18:24:58.312Z,12.40
2023-04-17T18:27:46.090Z,12.40
2023-04-17T18:30:34.073Z,12.30
2023-04-17T18:33:21.924Z,12.30
2023-04-17T18:36:11.092Z,12.30
2023-04-17T18:38:58.537Z,12.30
2023-04-17T18:41:45.968Z,12.20
2023-04-17T18:44:33.497Z,12.20
2023-04-17T18:47:20.828Z,12.20
2023-04-17T18:50:10.150Z,12.10
2023-04-17T18:52:59.140Z,12.10
2023-04-17T18:55:46.622Z,12.10
2023-04-17T18:58:34.247Z,12.10
2023-04-17T19:01:21.627Z,12.10
2023-04-17T19:04:09.570Z,12.00
2023-04-17T19:06:58.090Z,12.00
2023-04-17T19:09:46.815Z,12.00
2023-04-17T19:12:36.059Z,11.90
2023-04-17T19:15:26.720Z,11.90
2023-04-17T19:18:14.452Z,11.80
2023-04-17T19:21:02.111Z,11.80
2023-04-17T19:23:49.876Z,11.80
2023-04-17T19:26:38.963Z,11.70
2023-04-17T19:29:26.887Z,11.70
2023-04-17T19:32:16.690Z,11.60
2023-04-17T19:35:04.550Z,11.60
2023-04-17T19:37:52.242Z,11.50
2023-04-17T19:40:39.638Z,11.50
2023-04-17T19:43:28.411Z,11.50
2023-04-17T19:46:16.181Z,11.40
2023-04-17T19:49:03.649Z,11.40
2023-04-17T19:51:51.064Z,11.30
2023-04-17T19:54:39.241Z,11.30
2023-04-17T19:57:27.017Z,11.20
2023-04-17T20:00:17.304Z,11.20
2023-04-17T20:03:04.770Z,11.10
2023-04-17T20:05:52.248Z,11.10
2023-04-17T20:08:40.157Z,11.00
2023-04-17T20:11:27.621Z,11.00
2023-04-17T20:14:15.824Z,10.90
2023-04-17T20:17:04.950Z,10.90
2023-04-17T20:19:52.392Z,10.90
2023-04-17T20:22:40.339Z,10.80
2023-04-17T20:25:27.944Z,10.80
2023-04-17T20:28:15.424Z,10.70
2023-04-17T20:31:04.508Z,10.70
2023-04-17T20:33:53.606Z,10.70
2023-04-17T20:36:41.450Z,10.70
2023-04-17T20:39:29.124Z,10.60
2023-04-17T20:42:16.922Z,10.60
2023-04-17T20:45:04.614Z,10.60
2023-04-17T20:50:43.807Z,10.60
2023-04-17T20:53:31.623Z,10.60
2023-04-17T20:56:20.020Z,10.50
2023-04-17T20:59:07.736Z,10.50
2023-04-17T21:01:55.615Z,10.50
2023-04-17T21:04:43.111Z,10.50
2023-04-17T21:07:32.472Z,10.50
2023-04-17T21:10:20.457Z,10.40
2023-04-17T21:13:08.026Z,10.40
2023-04-17T21:15:55.596Z,10.40
2023-04-17T21:18:43.102Z,10.30
2023-04-17T21:21:30.617Z,10.30
2023-04-17T21:24:19.690Z,10.30
2023-04-17T21:27:07.175Z,10.30
2023-04-17T21:29:54.684Z,10.30
2023-04-17T21:32:42.613Z,10.20
2023-04-17T21:35:30.094Z,10.20
2023-04-17T21:38:17.645Z,10.20
2023-04-17T21:41:06.893Z,10.20
2023-04-17T21:43:54.862Z,10.20
2023-04-17T21:46:44.442Z,10.10
2023-04-17T21:49:32.378Z,10.10
2023-04-17T21:52:20.119Z,10.10
2023-04-17T21:55:08.710Z,10.10
2023-04-17T21:57:57.339Z,10.10
2023-04-17T22:00:44.955Z,10.10
2023-04-17T22:03:32.832Z,10.10
2023-04-17T22:06:20.906Z,10.00
2023-04-17T22:09:08.862Z,10.00
2023-04-17T22:11:56.627Z,10.00
2023-04-17T22:14:45.529Z,10.00
2023-04-17T22:17:33.212Z,9.90
2023-04-17T22:20:21.240Z,9.90
2023-04-17T22:24:04.164Z,9.90
2023-04-17T22:28:05.438Z,9.90
2023-04-17T22:32:06.787Z,9.90
2023-04-17T22:36:08.196Z,9.90
2023-04-17T22:40:09.420Z,9.80
2023-04-17T22:44:10.556Z,9.80
2023-04-17T22:48:12.663Z,9.80
2023-04-17T22:52:14.304Z,9.80
2023-04-17T22:56:16.341Z,9.80
2023-04-17T23:00:18.109Z,9.80
2023-04-17T23:04:20.017Z,9.70
2023-04-17T23:08:21.819Z,9.70
2023-04-17T23:11:31.919Z,9.70
2023-04-17T23:14:19.527Z,9.70
2023-04-17T23:17:07.104Z,9.70
2023-04-17T23:19:54.817Z,9.70
2023-04-17T23:22:42.699Z,9.60
2023-04-17T23:25:30.171Z,9.60
2023-04-17T23:28:18.855Z,9.60
2023-04-17T23:31:07.151Z,9.60
2023-04-17T23:33:54.642Z,9.60
2023-04-17T23:36:42.205Z,9.60
2023-04-17T23:39:29.919Z,9.60
2023-04-17T23:42:17.277Z,9.50
2023-04-17T23:45:07.293Z,9.60
2023-04-17T23:47:55.022Z,9.50
2023-04-17T23:50:42.687Z,9.60
2023-04-17T23:53:30.053Z,9.50
2023-04-17T23:56:18.154Z,9.50
2023-04-17T23:59:05.804Z,9.60
